Time;durP1;ratioP1;P1;durP2;ratioP2;P2;SDS_P1;SDS_P2;PMS_P1;PMS_P2;Temp;Humidity;BMP_temperature;BMP_pressure;BME280_temperature;BME280_humidity;BME280_pressure;Samples;Min_cycle;Max_cycle;Signal;HPM_P1;HPM_P2
2022/10/25 00:01:48;;;;;;;5.80;3.10;;;15.00;99.90;;;;;;5015522;28;20450;-37
2022/10/25 00:04:15;;;;;;;11.53;3.13;;;15.00;99.90;;;;;;5008987;28;20468;-40
2022/10/25 00:06:42;;;;;;;6.10;3.10;;;15.00;99.90;;;;;;5010527;28;20460;-34
2022/10/25 00:09:11;;;;;;;6.53;2.63;;;15.00;99.90;;;;;;5011690;28;20456;-37
2022/10/25 00:11:37;;;;;;;3.63;2.33;;;14.90;99.90;;;;;;5010689;28;20483;-36
2022/10/25 00:14:08;;;;;;;2.33;2.13;;;14.90;99.90;;;;;;5013675;28;20492;-37
2022/10/25 00:16:38;;;;;;;7.03;2.60;;;14.90;99.90;;;;;;5013589;28;20422;-38
2022/10/25 00:19:05;;;;;;;4.23;3.10;;;14.90;99.90;;;;;;5017921;28;20446;-39
2022/10/25 00:21:32;;;;;;;9.17;2.80;;;14.90;99.90;;;;;;5017680;28;20444;-43
2022/10/25 00:23:59;;;;;;;4.13;2.90;;;14.90;99.90;;;;;;5015766;28;20481;-37
2022/10/25 00:26:27;;;;;;;4.13;2.17;;;14.90;99.90;;;;;;5015961;28;20562;-38
2022/10/25 00:28:55;;;;;;;7.07;2.80;;;14.90;99.90;;;;;;5016419;28;20454;-41
2022/10/25 00:31:26;;;;;;;3.20;2.50;;;14.90;99.90;;;;;;5016240;28;20444;-39
2022/10/25 00:33:53;;;;;;;2.87;2.23;;;14.90;99.90;;;;;;5016440;28;20541;-37
2022/10/25 00:36:22;;;;;;;5.70;3.10;;;14.90;99.90;;;;;;5016651;28;20454;-39
2022/10/25 00:38:49;;;;;;;5.43;2.80;;;15.20;99.90;;;;;;4999404;28;20541;-37
2022/10/25 00:41:19;;;;;;;6.80;2.87;;;14.80;99.90;;;;;;5015001;28;20430;-39
2022/10/25 00:43:49;;;;;;;4.37;3.70;;;14.80;99.90;;;;;;5014391;28;20456;-37
2022/10/25 00:46:24;;;;;;;5.27;3.07;;;14.80;99.90;;;;;;5014702;28;20440;-39
2022/10/25 00:48:57;;;;;;;3.00;2.30;;;14.80;99.90;;;;;;5012079;28;20469;-39
2022/10/25 00:51:30;;;;;;;3.37;2.73;;;14.70;99.90;;;;;;5014707;28;20456;-36
2022/10/25 00:54:00;;;;;;;12.90;4.10;;;14.70;99.90;;;;;;5014324;28;20474;-39
2022/10/25 00:56:31;;;;;;;4.73;3.03;;;14.70;99.90;;;;;;5012053;28;20422;-39
2022/10/25 00:59:04;;;;;;;3.67;2.87;;;14.70;99.90;;;;;;5014556;28;20446;-38
2022/10/25 01:01:30;;;;;;;4.53;2.80;;;14.70;99.90;;;;;;5010305;28;20486;-40
2022/10/25 01:04:02;;;;;;;7.27;3.60;;;14.60;99.90;;;;;;5011751;28;20445;-39
2022/10/25 01:06:34;;;;;;;4.10;3.13;;;14.60;99.90;;;;;;5012855;28;20473;-37
2022/10/25 01:09:02;;;;;;;7.03;3.03;;;14.60;99.90;;;;;;5015091;28;20431;-40
2022/10/25 01:11:29;;;;;;;9.57;3.27;;;14.60;99.90;;;;;;5013827;28;20478;-39
2022/10/25 01:13:57;;;;;;;8.83;3.37;;;14.70;99.90;;;;;;5012949;28;20469;-37
2022/10/25 01:16:32;;;;;;;6.17;4.53;;;14.60;99.90;;;;;;5011520;28;20972;-39
2022/10/25 01:19:11;;;;;;;7.77;3.27;;;14.60;99.90;;;;;;5012494;28;20476;-38
2022/10/25 01:21:47;;;;;;;5.80;3.30;;;14.70;99.90;;;;;;5011429;28;20429;-40
2022/10/25 01:24:41;;;;;;;5.03;2.40;;;14.70;99.90;;;;;;5011211;28;20426;-38
2022/10/25 01:27:30;;;;;;;10.10;4.50;;;14.70;99.90;;;;;;5012858;28;20505;-39
2022/10/25 01:30:12;;;;;;;11.00;3.10;;;14.70;99.90;;;;;;5008161;28;20485;-38
2022/10/25 01:32:51;;;;;;;5.10;3.17;;;14.80;99.90;;;;;;5011347;28;20477;-39
2022/10/25 01:35:29;;;;;;;3.23;2.43;;;14.80;99.90;;;;;;5011963;28;20468;-37
2022/10/25 01:38:29;;;;;;;4.00;2.70;;;14.80;99.90;;;;;;5013722;28;20446;-36
2022/10/25 01:41:05;;;;;;;6.33;3.33;;;14.90;99.90;;;;;;5011595;28;20426;-37
2022/10/25 01:43:41;;;;;;;7.67;2.90;;;14.90;99.90;;;;;;5008954;28;20458;-38
2022/10/25 01:46:15;;;;;;;4.70;2.93;;;14.90;99.90;;;;;;5011305;28;20438;-41
2022/10/25 01:48:52;;;;;;;6.43;3.00;;;14.90;99.90;;;;;;5015685;28;20426;-38
2022/10/25 01:51:22;;;;;;;4.90;3.23;;;14.90;99.90;;;;;;5013461;28;20490;-41
2022/10/25 01:53:50;;;;;;;3.80;2.47;;;14.90;99.90;;;;;;5006993;28;20437;-39
2022/10/25 01:56:26;;;;;;;3.40;3.07;;;14.90;99.90;;;;;;5014366;28;20577;-36
2022/10/25 01:59:18;;;;;;;3.80;2.73;;;15.00;99.90;;;;;;5015571;28;20453;-46
2022/10/25 02:01:58;;;;;;;6.90;3.07;;;15.00;99.90;;;;;;5014402;28;20561;-38
2022/10/25 02:04:35;;;;;;;3.43;2.67;;;15.00;99.90;;;;;;5014436;28;20422;-37
2022/10/25 02:07:07;;;;;;;5.63;2.70;;;15.00;99.90;;;;;;5014013;28;20505;-39
2022/10/25 02:09:42;;;;;;;4.27;2.67;;;15.00;99.90;;;;;;5014482;28;20442;-37
2022/10/25 02:12:14;;;;;;;9.70;2.60;;;15.00;99.90;;;;;;5013954;28;20873;-39
2022/10/25 02:14:49;;;;;;;3.63;2.70;;;15.00;99.90;;;;;;5013164;28;20493;-40
2022/10/25 02:17:19;;;;;;;5.20;2.30;;;15.00;99.90;;;;;;5014294;28;20413;-37
2022/10/25 02:19:50;;;;;;;6.10;3.23;;;15.00;99.90;;;;;;5013648;28;20537;-36
2022/10/25 02:22:20;;;;;;;7.73;3.17;;;15.10;99.90;;;;;;5014729;28;20418;-39
2022/10/25 02:24:55;;;;;;;5.13;2.97;;;15.10;99.90;;;;;;5013954;28;20434;-38
2022/10/25 02:27:23;;;;;;;10.33;3.30;;;15.10;99.90;;;;;;5015062;28;20529;-36
2022/10/25 02:29:52;;;;;;;6.47;2.50;;;15.10;99.90;;;;;;5015032;28;20450;-36
2022/10/25 02:32:21;;;;;;;3.00;2.50;;;15.10;99.90;;;;;;5014849;28;20593;-37
2022/10/25 02:34:50;;;;;;;4.10;2.80;;;15.10;99.90;;;;;;5001156;28;20492;-35
2022/10/25 02:37:18;;;;;;;4.40;2.83;;;15.10;99.90;;;;;;5006411;28;20450;-38
2022/10/25 02:39:45;;;;;;;4.53;2.60;;;15.10;99.90;;;;;;5013566;28;20462;-38
2022/10/25 02:42:12;;;;;;;6.30;2.97;;;15.10;99.90;;;;;;5013629;28;20430;-36
2022/10/25 02:44:40;;;;;;;3.63;2.30;;;15.10;99.90;;;;;;5014266;28;20766;-35
2022/10/25 02:47:07;;;;;;;4.13;2.63;;;15.10;99.90;;;;;;5014633;28;20470;-37
2022/10/25 02:49:33;;;;;;;6.40;3.30;;;15.10;99.90;;;;;;5014946;28;20477;-35
2022/10/25 02:52:02;;;;;;;5.30;2.77;;;15.10;99.90;;;;;;5014955;28;20820;-35
2022/10/25 02:54:28;;;;;;;5.93;2.50;;;15.00;99.90;;;;;;5018237;28;20474;-43
2022/10/25 02:56:55;;;;;;;3.20;2.43;;;15.10;99.90;;;;;;5013456;28;20537;-37
2022/10/25 02:59:24;;;;;;;3.30;2.13;;;15.10;99.90;;;;;;5017671;28;20448;-39
2022/10/25 03:01:57;;;;;;;4.53;2.90;;;15.00;99.90;;;;;;5018628;28;20426;-37
2022/10/25 03:04:24;;;;;;;5.10;2.70;;;15.10;99.90;;;;;;5006675;28;20461;-38
2022/10/25 03:06:50;;;;;;;8.43;2.30;;;15.10;99.90;;;;;;5018234;28;20449;-34
2022/10/25 03:09:18;;;;;;;6.20;3.00;;;15.10;99.90;;;;;;5015916;28;20480;-38
2022/10/25 03:11:47;;;;;;;9.93;2.53;;;15.10;99.90;;;;;;5016752;28;20446;-34
2022/10/25 03:14:14;;;;;;;10.33;2.50;;;15.20;99.90;;;;;;5011038;28;20494;-36
2022/10/25 03:16:41;;;;;;;4.70;2.43;;;15.10;99.90;;;;;;5008944;28;20446;-38
2022/10/25 03:19:07;;;;;;;4.83;2.60;;;15.10;99.90;;;;;;5016212;28;20445;-36
2022/10/25 03:21:37;;;;;;;9.03;2.60;;;15.10;99.90;;;;;;5012340;28;20478;-37
2022/10/25 03:24:04;;;;;;;3.50;2.33;;;15.10;99.90;;;;;;5010767;28;20450;-38
2022/10/25 03:26:33;;;;;;;4.20;2.60;;;15.10;99.90;;;;;;5018083;28;20450;-37
2022/10/25 03:29:00;;;;;;;5.77;2.30;;;15.10;99.90;;;;;;5018027;28;20434;-35
2022/10/25 03:31:30;;;;;;;6.30;2.77;;;15.10;99.90;;;;;;5017496;28;20952;-35
2022/10/25 03:33:56;;;;;;;9.70;2.00;;;15.10;99.90;;;;;;5017757;28;20458;-36
2022/10/25 03:36:26;;;;;;;2.53;2.20;;;15.10;99.90;;;;;;5017466;28;20466;-43
2022/10/25 03:38:53;;;;;;;9.50;2.80;;;15.10;99.90;;;;;;5017863;28;20457;-36
2022/10/25 03:41:23;;;;;;;9.50;1.97;;;15.20;99.90;;;;;;5017958;28;20466;-35
2022/10/25 03:43:51;;;;;;;9.03;1.80;;;15.10;99.90;;;;;;5018253;28;20446;-36
2022/10/25 03:46:18;;;;;;;6.50;2.07;;;15.10;99.90;;;;;;5017533;28;20538;-37
2022/10/25 03:48:44;;;;;;;5.00;2.17;;;15.00;99.90;;;;;;5016908;28;20442;-39
2022/10/25 03:51:11;;;;;;;4.10;2.30;;;14.90;99.90;;;;;;5009932;28;20450;-36
2022/10/25 03:53:38;;;;;;;9.77;2.77;;;14.90;99.90;;;;;;5007121;28;20442;-36
2022/10/25 03:56:06;;;;;;;5.13;2.07;;;14.90;99.90;;;;;;5017271;28;20461;-36
2022/10/25 03:58:32;;;;;;;3.07;2.20;;;14.90;99.90;;;;;;5017045;28;20569;-34
2022/10/25 04:01:01;;;;;;;4.57;2.47;;;14.90;99.90;;;;;;5017276;28;20426;-35
2022/10/25 04:03:30;;;;;;;7.07;2.00;;;14.80;99.90;;;;;;5014288;28;20553;-35
2022/10/25 04:06:00;;;;;;;6.03;2.67;;;14.80;99.90;;;;;;5016313;28;20437;-37
2022/10/25 04:08:27;;;;;;;4.10;2.50;;;14.80;99.90;;;;;;5011895;28;20426;-36
2022/10/25 04:10:54;;;;;;;3.90;1.80;;;14.80;99.90;;;;;;5017189;28;20476;-35
2022/10/25 04:13:20;;;;;;;4.40;2.20;;;14.80;99.90;;;;;;5016900;28;20522;-40
2022/10/25 04:15:47;;;;;;;2.17;1.90;;;14.80;99.90;;;;;;5016688;28;20556;-36
2022/10/25 04:18:15;;;;;;;5.70;2.33;;;14.80;99.90;;;;;;5017192;28;20470;-35
2022/10/25 04:20:45;;;;;;;3.60;2.33;;;14.80;99.90;;;;;;5017201;28;20448;-36
2022/10/25 04:23:12;;;;;;;4.90;2.40;;;14.80;99.90;;;;;;5016873;28;20473;-36
2022/10/25 04:25:39;;;;;;;7.23;2.30;;;14.80;99.90;;;;;;5016386;28;20478;-40
2022/10/25 04:28:06;;;;;;;5.10;2.17;;;14.70;99.90;;;;;;5016860;28;20450;-35
2022/10/25 04:30:32;;;;;;;4.77;2.57;;;14.80;99.90;;;;;;5016300;28;20430;-38
2022/10/25 04:33:02;;;;;;;2.73;1.97;;;14.70;99.90;;;;;;5016641;28;20522;-37
2022/10/25 04:35:31;;;;;;;4.10;1.73;;;14.80;99.90;;;;;;5006105;28;20482;-38
2022/10/25 04:37:58;;;;;;;1.93;1.43;;;14.80;99.90;;;;;;5016346;28;20446;-36
2022/10/25 04:40:25;;;;;;;2.90;2.07;;;14.70;99.90;;;;;;5014869;28;20422;-38
2022/10/25 04:42:52;;;;;;;2.07;1.37;;;14.80;99.90;;;;;;5016570;28;20451;-34
2022/10/25 04:45:19;;;;;;;2.63;1.40;;;14.80;99.90;;;;;;5010758;28;20509;-38
2022/10/25 04:47:46;;;;;;;3.30;1.60;;;14.80;99.90;;;;;;5012223;28;20569;-37
2022/10/25 04:50:13;;;;;;;1.90;1.43;;;14.80;99.90;;;;;;5015626;28;20522;-37
2022/10/25 04:52:41;;;;;;;2.40;1.50;;;14.80;99.90;;;;;;5013999;28;20438;-38
2022/10/25 04:55:08;;;;;;;2.30;1.93;;;14.80;99.90;;;;;;5015330;28;20486;-38
2022/10/25 04:57:35;;;;;;;2.57;2.30;;;14.80;99.90;;;;;;5015337;28;20432;-40
2022/10/25 05:00:02;;;;;;;4.97;2.10;;;14.80;99.90;;;;;;5003286;28;20465;-46
2022/10/25 05:02:29;;;;;;;5.80;2.07;;;14.80;99.90;;;;;;5014766;28;20442;-38
2022/10/25 05:04:56;;;;;;;8.83;2.00;;;14.80;99.90;;;;;;5015070;28;20442;-38
2022/10/25 05:07:23;;;;;;;2.30;1.73;;;14.80;99.90;;;;;;5004920;28;20440;-39
2022/10/25 05:09:51;;;;;;;3.27;2.40;;;14.80;99.90;;;;;;5014581;28;20451;-38
2022/10/25 05:12:19;;;;;;;2.70;1.77;;;14.80;99.90;;;;;;5015474;28;20458;-41
2022/10/25 05:14:46;;;;;;;5.10;1.50;;;14.80;99.90;;;;;;5003060;28;20860;-37
2022/10/25 05:17:13;;;;;;;2.60;2.40;;;14.80;99.90;;;;;;5014703;28;20449;-38
2022/10/25 05:19:40;;;;;;;3.73;1.93;;;14.70;99.90;;;;;;5015329;28;20431;-36
2022/10/25 05:22:06;;;;;;;3.63;1.83;;;14.70;99.90;;;;;;5014869;28;20450;-38
2022/10/25 05:24:34;;;;;;;8.23;1.60;;;14.70;99.90;;;;;;5004585;28;20474;-36
2022/10/25 05:27:02;;;;;;;5.30;1.50;;;14.70;99.90;;;;;;5014211;28;20438;-37
2022/10/25 05:29:29;;;;;;;2.10;1.37;;;14.70;99.90;;;;;;5002508;28;20449;-34
2022/10/25 05:31:56;;;;;;;2.13;1.90;;;14.60;99.90;;;;;;5014163;28;20482;-37
2022/10/25 05:34:23;;;;;;;3.53;1.97;;;14.60;99.90;;;;;;5009825;28;20453;-36
2022/10/25 05:36:51;;;;;;;9.90;2.03;;;14.60;99.90;;;;;;5014170;28;20489;-35
2022/10/25 05:39:18;;;;;;;7.20;1.60;;;14.50;99.90;;;;;;5014843;28;20835;-36
2022/10/25 05:41:45;;;;;;;2.63;1.63;;;14.50;99.90;;;;;;5013822;28;20457;-36
2022/10/25 05:44:15;;;;;;;9.90;1.77;;;14.50;99.90;;;;;;5014838;28;20410;-36
2022/10/25 05:46:42;;;;;;;4.80;2.03;;;14.50;99.90;;;;;;5006945;28;20450;-37
2022/10/25 05:49:10;;;;;;;4.20;2.90;;;14.50;99.90;;;;;;5015212;28;20824;-39
2022/10/25 05:51:38;;;;;;;10.53;2.23;;;14.40;99.90;;;;;;5015255;28;20449;-36
2022/10/25 05:54:07;;;;;;;2.60;2.00;;;14.50;99.90;;;;;;5015354;28;20462;-36
2022/10/25 05:56:35;;;;;;;3.00;1.70;;;14.50;99.90;;;;;;5015857;28;20454;-34
2022/10/25 05:59:06;;;;;;;8.70;1.67;;;14.50;99.90;;;;;;5014375;28;20517;-37
2022/10/25 06:01:35;;;;;;;2.43;1.50;;;14.50;99.90;;;;;;5015149;28;20468;-36
2022/10/25 06:04:02;;;;;;;6.80;1.97;;;14.50;99.90;;;;;;5011218;28;20414;-36
2022/10/25 06:06:29;;;;;;;1.97;1.60;;;14.60;99.90;;;;;;5015174;28;20469;-38
2022/10/25 06:08:57;;;;;;;3.53;1.53;;;14.50;99.90;;;;;;5014537;28;20438;-36
2022/10/25 06:11:24;;;;;;;3.67;1.57;;;14.50;99.90;;;;;;5014594;28;20501;-37
2022/10/25 06:13:51;;;;;;;5.10;1.60;;;14.60;99.90;;;;;;5015624;28;20454;-38
2022/10/25 06:16:19;;;;;;;2.20;1.57;;;14.60;99.90;;;;;;5011803;28;20470;-35
2022/10/25 06:18:49;;;;;;;2.70;1.80;;;14.60;99.90;;;;;;5014557;28;20470;-39
2022/10/25 06:21:18;;;;;;;3.10;1.50;;;14.60;99.90;;;;;;5014211;28;20442;-36
2022/10/25 06:23:48;;;;;;;4.10;1.60;;;14.60;99.90;;;;;;5014192;28;20452;-37
2022/10/25 06:26:16;;;;;;;4.60;1.73;;;14.60;99.90;;;;;;5013804;28;20541;-37
2022/10/25 06:28:46;;;;;;;2.90;1.77;;;14.60;99.90;;;;;;5011019;28;20458;-38
2022/10/25 06:31:15;;;;;;;2.57;2.20;;;14.60;99.90;;;;;;5018859;28;20458;-37
2022/10/25 06:33:43;;;;;;;1.97;1.77;;;14.80;99.90;;;;;;5019193;28;20444;-36
2022/10/25 06:36:15;;;;;;;2.13;1.30;;;14.80;99.90;;;;;;5018770;28;20485;-43
2022/10/25 06:38:42;;;;;;;2.07;1.70;;;14.70;99.90;;;;;;5016101;28;20438;-38
2022/10/25 06:41:12;;;;;;;1.30;1.20;;;14.70;99.90;;;;;;5011262;28;20422;-37
2022/10/25 06:43:39;;;;;;;2.23;1.57;;;14.70;99.90;;;;;;5018771;28;20544;-37
2022/10/25 06:46:06;;;;;;;4.83;1.83;;;14.70;99.90;;;;;;5018257;28;20441;-38
2022/10/25 06:48:33;;;;;;;2.53;1.70;;;14.80;99.90;;;;;;5018202;28;20442;-40
2022/10/25 06:51:03;;;;;;;4.90;1.30;;;14.80;99.90;;;;;;5018196;28;20426;-36
2022/10/25 06:53:32;;;;;;;4.40;1.83;;;14.80;99.90;;;;;;5018588;28;20429;-40
2022/10/25 06:56:00;;;;;;;2.27;1.47;;;14.80;99.90;;;;;;5017245;28;20512;-38
2022/10/25 06:58:29;;;;;;;2.10;1.80;;;14.80;99.90;;;;;;5011230;28;20486;-38
2022/10/25 07:01:00;;;;;;;4.13;1.60;;;14.90;99.90;;;;;;5007393;28;20442;-37
2022/10/25 07:03:30;;;;;;;3.90;1.97;;;14.90;99.90;;;;;;5008699;28;20430;-36
2022/10/25 07:05:59;;;;;;;6.40;1.67;;;14.90;99.90;;;;;;5017888;28;20461;-37
2022/10/25 07:08:26;;;;;;;3.27;2.13;;;15.00;99.90;;;;;;5013175;28;20472;-35
2022/10/25 07:10:55;;;;;;;4.00;2.03;;;15.00;99.90;;;;;;5017185;28;20993;-37
2022/10/25 07:13:21;;;;;;;6.60;2.40;;;15.10;99.90;;;;;;5017099;28;20468;-38
2022/10/25 07:15:48;;;;;;;5.33;2.30;;;15.10;99.90;;;;;;5018264;28;20470;-37
2022/10/25 07:18:17;;;;;;;5.77;3.03;;;15.10;99.90;;;;;;5017783;28;20722;-46
2022/10/25 07:20:47;;;;;;;7.13;2.17;;;15.10;99.90;;;;;;5018344;28;20448;-39
2022/10/25 07:23:14;;;;;;;13.30;2.07;;;15.10;99.90;;;;;;5006576;28;20510;-37
2022/10/25 07:25:43;;;;;;;3.57;2.10;;;15.20;99.90;;;;;;5017224;28;20960;-37
2022/10/25 07:28:12;;;;;;;4.13;2.13;;;15.20;99.90;;;;;;5017783;28;20442;-39
2022/10/25 07:30:44;;;;;;;4.53;1.57;;;15.30;99.90;;;;;;5017665;28;20449;-40
2022/10/25 07:33:11;;;;;;;2.63;1.70;;;15.30;99.90;;;;;;5007282;28;20445;-38
2022/10/25 07:35:41;;;;;;;3.73;1.83;;;15.40;99.90;;;;;;5015436;28;20504;-38
2022/10/25 07:38:07;;;;;;;2.47;1.80;;;15.40;99.90;;;;;;5017054;28;20544;-36
2022/10/25 07:40:34;;;;;;;5.63;2.17;;;15.40;99.90;;;;;;5018241;28;20445;-33
2022/10/25 07:43:03;;;;;;;2.23;1.90;;;15.40;99.90;;;;;;5004858;28;20473;-37
2022/10/25 07:45:35;;;;;;;2.20;1.67;;;15.40;99.90;;;;;;5017513;28;20449;-36
2022/10/25 07:48:02;;;;;;;5.00;1.93;;;15.40;99.90;;;;;;5017544;28;20541;-37
2022/10/25 07:50:29;;;;;;;2.60;1.63;;;15.40;99.90;;;;;;5018137;28;20453;-36
2022/10/25 07:52:57;;;;;;;2.27;2.07;;;15.40;99.90;;;;;;5017992;28;20479;-38
2022/10/25 07:55:24;;;;;;;4.70;2.10;;;15.30;99.90;;;;;;5014576;28;20445;-38
2022/10/25 07:57:51;;;;;;;3.20;1.77;;;15.40;99.90;;;;;;5007261;28;20792;-34
2022/10/25 08:00:18;;;;;;;6.20;1.70;;;15.50;99.90;;;;;;5017328;28;20539;-35
2022/10/25 08:02:46;;;;;;;2.23;1.50;;;15.50;99.90;;;;;;5017097;28;20446;-36
2022/10/25 08:05:13;;;;;;;4.30;1.63;;;15.60;99.90;;;;;;5017015;28;20465;-35
2022/10/25 08:07:40;;;;;;;3.23;1.80;;;15.60;99.90;;;;;;5003868;28;20438;-35
2022/10/25 08:10:07;;;;;;;6.50;1.50;;;15.60;99.90;;;;;;5017386;28;20442;-36
2022/10/25 08:12:34;;;;;;;3.43;2.03;;;15.60;99.90;;;;;;5017429;28;20518;-33
2022/10/25 08:15:01;;;;;;;3.83;1.83;;;15.60;99.90;;;;;;5003933;28;20501;-37
2022/10/25 08:17:27;;;;;;;2.77;1.73;;;15.60;99.90;;;;;;5004387;28;20501;-36
2022/10/25 08:19:56;;;;;;;3.47;1.40;;;15.60;99.90;;;;;;5015714;28;20513;-36
2022/10/25 08:22:22;;;;;;;2.73;1.73;;;15.70;99.90;;;;;;5017115;28;20469;-36
2022/10/25 08:24:49;;;;;;;4.13;1.63;;;15.70;99.90;;;;;;5016263;28;20485;-39
2022/10/25 08:27:16;;;;;;;2.93;1.50;;;15.70;99.90;;;;;;5014541;28;20872;-38
2022/10/25 08:29:43;;;;;;;1.77;1.40;;;15.70;99.90;;;;;;5010007;28;20452;-36
2022/10/25 08:32:10;;;;;;;5.33;1.53;;;15.70;99.90;;;;;;5016796;28;20460;-33
2022/10/25 08:34:36;;;;;;;7.07;2.03;;;15.60;99.90;;;;;;5016828;28;20442;-36
2022/10/25 08:37:05;;;;;;;3.27;2.37;;;15.50;99.90;;;;;;5016186;28;20541;-37
2022/10/25 08:39:32;;;;;;;4.77;1.43;;;15.50;99.90;;;;;;4999294;28;20749;-37
2022/10/25 08:42:00;;;;;;;1.80;1.60;;;15.50;99.90;;;;;;5014996;28;20446;-37
2022/10/25 08:44:50;;;;;;;3.03;1.50;;;15.50;99.90;;;;;;5016284;28;20434;-35
2022/10/25 08:47:20;;;;;;;7.20;1.90;;;15.60;99.90;;;;;;5015743;28;20456;-39
2022/10/25 08:49:55;;;;;;;3.83;1.50;;;15.60;99.90;;;;;;5004471;28;20518;-37
2022/10/25 08:52:31;;;;;;;1.60;1.50;;;15.60;99.90;;;;;;5010670;28;20452;-34
2022/10/25 08:55:02;;;;;;;5.97;2.83;;;15.70;99.90;;;;;;5004433;28;20884;-38
2022/10/25 08:57:32;;;;;;;3.27;1.57;;;15.70;99.90;;;;;;5002722;28;20522;-39
2022/10/25 09:00:06;;;;;;;6.70;2.10;;;15.80;99.90;;;;;;5009403;28;20490;-43
2022/10/25 09:02:41;;;;;;;2.60;1.83;;;16.00;99.90;;;;;;5013572;28;20437;-43
2022/10/25 09:05:16;;;;;;;2.47;1.60;;;16.10;99.90;;;;;;5016112;28;20536;-47
2022/10/25 09:08:07;;;;;;;5.63;2.07;;;16.20;99.90;;;;;;5015370;28;20433;-38
2022/10/25 09:10:48;;;;;;;3.17;1.60;;;16.30;99.90;;;;;;5015108;28;20504;-43
2022/10/25 09:13:26;;;;;;;8.87;1.77;;;16.20;99.90;;;;;;5016011;28;20419;-50
2022/10/25 09:16:01;;;;;;;3.30;1.60;;;16.60;99.90;;;;;;5015943;28;20834;-48
2022/10/25 09:18:36;;;;;;;2.33;1.73;;;16.70;99.90;;;;;;5015875;28;20457;-42
2022/10/25 09:21:07;;;;;;;10.90;2.00;;;16.60;99.90;;;;;;5015905;28;20438;-41
2022/10/25 09:23:35;;;;;;;5.43;2.00;;;16.60;99.90;;;;;;5008960;28;20799;-44
2022/10/25 09:26:04;;;;;;;2.70;1.90;;;16.90;99.90;;;;;;5010604;28;20454;-46
2022/10/25 09:28:49;;;;;;;3.47;2.07;;;16.60;99.90;;;;;;5016125;28;20462;-43
2022/10/25 09:31:22;;;;;;;2.67;2.10;;;16.60;99.90;;;;;;5001383;28;20522;-44
2022/10/25 09:33:53;;;;;;;5.80;2.10;;;16.70;99.90;;;;;;5009535;28;20469;-46
2022/10/25 09:36:21;;;;;;;3.80;1.52;;;16.70;99.90;;;;;;5001733;28;20547;-48
2022/10/25 09:38:53;;;;;;;6.63;1.70;;;16.80;99.90;;;;;;5015634;28;20203;-41
2022/10/25 09:41:25;;;;;;;2.10;1.57;;;16.90;99.90;;;;;;5014811;28;20430;-48
2022/10/25 09:43:56;;;;;;;21.53;2.43;;;17.20;99.90;;;;;;5012038;28;20516;-43
2022/10/25 09:46:30;;;;;;;5.27;1.80;;;17.80;99.90;;;;;;5011554;28;20466;-40
2022/10/25 09:49:01;;;;;;;3.33;1.80;;;18.40;99.90;;;;;;5003621;28;20449;-42
2022/10/25 09:51:35;;;;;;;4.20;1.43;;;18.90;99.90;;;;;;5013456;28;20488;-47
2022/10/25 09:54:14;;;;;;;4.20;2.00;;;19.50;99.90;;;;;;4995355;28;20427;-42
2022/10/25 09:56:41;;;;;;;4.00;2.10;;;19.80;99.90;;;;;;4996020;28;20516;-47
2022/10/25 09:59:10;;;;;;;2.17;1.80;;;19.80;99.90;;;;;;4995978;28;20453;-43
2022/10/25 10:01:39;;;;;;;2.60;1.87;;;20.00;99.90;;;;;;4995719;28;20934;-42
2022/10/25 10:04:23;;;;;;;2.90;1.67;;;20.10;99.90;;;;;;4996540;28;20438;-46
2022/10/25 10:06:52;;;;;;;7.53;2.33;;;19.80;99.90;;;;;;4996018;28;20475;-42
2022/10/25 10:09:22;;;;;;;5.40;1.97;;;19.40;99.90;;;;;;4998280;28;20457;-51
2022/10/25 10:11:53;;;;;;;4.70;1.87;;;18.90;99.90;;;;;;5015069;28;20441;-47
2022/10/25 10:14:26;;;;;;;4.77;2.07;;;18.60;99.90;;;;;;5014885;28;20470;-49
2022/10/25 10:16:56;;;;;;;2.90;1.47;;;18.20;99.90;;;;;;5015005;28;20525;-47
2022/10/25 10:19:25;;;;;;;6.83;1.90;;;17.80;99.90;;;;;;5015336;28;20530;-46
2022/10/25 10:21:54;;;;;;;5.80;1.77;;;17.50;99.90;;;;;;5015072;28;20438;-44
2022/10/25 10:24:25;;;;;;;4.40;1.70;;;17.30;99.90;;;;;;5014976;28;20446;-47
2022/10/25 10:26:57;;;;;;;10.37;1.80;;;17.30;99.90;;;;;;4996117;28;20419;-44
2022/10/25 10:29:25;;;;;;;2.70;1.80;;;17.10;99.90;;;;;;4995948;28;20440;-46
2022/10/25 10:31:54;;;;;;;2.17;1.33;;;17.10;99.90;;;;;;4995812;28;20470;-49
2022/10/25 10:34:25;;;;;;;2.80;1.73;;;17.00;99.90;;;;;;4995779;28;20526;-47
2022/10/25 10:37:05;;;;;;;3.77;1.77;;;16.80;99.90;;;;;;4995546;28;20483;-50
2022/10/25 10:39:34;;;;;;;6.13;2.20;;;16.70;99.90;;;;;;4995354;28;20434;-47
2022/10/25 10:42:02;;;;;;;8.50;2.00;;;16.60;99.90;;;;;;4995134;28;20538;-44
2022/10/25 10:44:33;;;;;;;5.40;1.50;;;16.60;99.90;;;;;;4982930;28;20914;-52
2022/10/25 10:47:00;;;;;;;3.83;1.43;;;16.60;99.90;;;;;;4994921;28;20470;-49
2022/10/25 10:52:03;;;;;;;2.13;1.70;;;16.60;99.90;;;;;;5068615;23;20494;-52
2022/10/25 10:54:36;;;;;;;6.73;2.20;;;16.70;99.90;;;;;;4994944;28;20482;-40
2022/10/25 10:57:05;;;;;;;8.80;1.83;;;16.70;99.90;;;;;;4994250;28;20455;-40
2022/10/25 10:59:39;;;;;;;3.33;1.67;;;16.70;99.90;;;;;;4994857;28;20473;-45
2022/10/25 11:02:28;;;;;;;5.57;2.07;;;16.80;99.90;;;;;;4994579;28;20522;-44
2022/10/25 11:04:57;;;;;;;2.97;1.47;;;16.80;99.90;;;;;;4994287;28;20435;-45
2022/10/25 11:07:29;;;;;;;3.03;2.00;;;16.90;99.90;;;;;;4994794;28;20446;-45
2022/10/25 11:10:23;;;;;;;2.57;1.80;;;17.00;99.90;;;;;;4994580;28;20439;-41
2022/10/25 11:13:14;;;;;;;3.13;1.53;;;17.30;99.90;;;;;;4994934;28;20490;-46
2022/10/25 11:16:02;;;;;;;1.90;1.70;;;17.40;99.90;;;;;;4998127;28;20431;-49
2022/10/25 11:18:45;;;;;;;4.70;2.20;;;17.50;99.90;;;;;;4969729;28;20494;-46
2022/10/25 11:21:28;;;;;;;3.53;2.13;;;17.50;99.90;;;;;;4998123;28;20434;-44
2022/10/25 11:24:06;;;;;;;2.80;1.70;;;17.50;99.90;;;;;;4997319;28;20482;-44
2022/10/25 11:26:49;;;;;;;4.70;2.20;;;17.50;99.90;;;;;;4997962;28;20469;-43
2022/10/25 11:29:29;;;;;;;2.10;1.80;;;17.60;99.90;;;;;;4997515;28;20473;-44
2022/10/25 11:32:03;;;;;;;2.80;1.70;;;17.70;99.90;;;;;;4998003;28;20478;-43
2022/10/25 11:34:37;;;;;;;4.70;1.83;;;17.80;99.90;;;;;;4991214;28;21056;-42
2022/10/25 11:37:17;;;;;;;5.10;2.23;;;18.00;99.90;;;;;;4992108;28;20497;-42
2022/10/25 11:39:53;;;;;;;3.00;1.93;;;18.10;99.90;;;;;;4984924;28;20474;-41
2022/10/25 11:42:37;;;;;;;6.03;1.80;;;18.20;99.90;;;;;;4997791;28;20490;-44
2022/10/25 11:45:35;;;;;;;4.13;2.00;;;18.30;99.90;;;;;;4997574;28;20486;-44
2022/10/25 11:48:22;;;;;;;4.97;2.20;;;18.30;99.90;;;;;;4985597;28;20482;-48
2022/10/25 11:50:57;;;;;;;2.70;1.60;;;18.40;99.90;;;;;;4997465;28;20490;-37
2022/10/25 11:53:37;;;;;;;3.17;2.03;;;18.40;99.90;;;;;;4998117;28;20447;-46
2022/10/25 11:56:13;;;;;;;4.33;1.60;;;18.20;99.90;;;;;;4986404;28;20427;-45
2022/10/25 11:58:50;;;;;;;3.17;1.43;;;18.20;99.90;;;;;;4997155;28;20481;-42
2022/10/25 12:01:34;;;;;;;3.63;2.47;;;18.20;99.90;;;;;;4987214;28;20470;-42
2022/10/25 12:04:25;;;;;;;4.67;2.20;;;18.20;99.90;;;;;;4997441;28;20451;-41
2022/10/25 12:07:05;;;;;;;2.63;1.70;;;18.20;99.90;;;;;;4997555;28;20514;-41
2022/10/25 12:09:41;;;;;;;4.00;2.00;;;18.10;99.90;;;;;;4987723;28;20699;-43
2022/10/25 12:12:12;;;;;;;4.47;2.30;;;18.20;99.90;;;;;;4995637;28;20470;-44
2022/10/25 12:14:45;;;;;;;5.70;3.20;;;18.10;99.90;;;;;;4997142;28;20435;-43
2022/10/25 12:17:21;;;;;;;4.90;2.57;;;18.10;99.90;;;;;;4984928;28;20470;-48
2022/10/25 12:19:51;;;;;;;2.20;2.00;;;18.20;99.90;;;;;;4997434;28;20730;-43
2022/10/25 12:22:24;;;;;;;1.80;1.60;;;18.20;99.90;;;;;;4997409;28;20793;-48
2022/10/25 12:24:58;;;;;;;3.40;2.37;;;18.00;99.90;;;;;;4996919;28;20519;-41
2022/10/25 12:27:27;;;;;;;8.13;3.70;;;17.80;99.90;;;;;;4986949;28;20457;-43
2022/10/25 12:29:58;;;;;;;3.77;1.93;;;17.70;99.90;;;;;;4993786;28;20447;-46
2022/10/25 12:32:33;;;;;;;6.43;2.10;;;17.60;99.90;;;;;;4997479;28;20443;-46
2022/10/25 12:35:03;;;;;;;4.80;2.57;;;17.70;99.90;;;;;;4997303;28;20446;-44
2022/10/25 12:37:44;;;;;;;2.30;1.80;;;17.70;99.90;;;;;;4994696;28;20494;-48
2022/10/25 12:40:16;;;;;;;4.27;2.20;;;17.70;99.90;;;;;;4995820;28;20467;-49
2022/10/25 12:42:46;;;;;;;4.33;1.97;;;17.60;99.90;;;;;;4995764;28;20522;-48
2022/10/25 12:45:52;;;;;;;1.90;1.70;;;17.60;99.90;;;;;;4995871;28;20441;-44
2022/10/25 12:48:46;;;;;;;2.60;2.03;;;17.50;99.90;;;;;;4958836;28;20453;-42
2022/10/25 12:51:26;;;;;;;4.97;2.03;;;17.30;99.90;;;;;;4982738;28;20485;-38
2022/10/25 12:54:07;;;;;;;3.77;1.93;;;17.10;99.90;;;;;;4980846;28;20438;-46
2022/10/25 12:56:46;;;;;;;6.37;1.97;;;17.00;99.90;;;;;;4996345;28;20445;-40
2022/10/25 12:59:30;;;;;;;6.27;3.50;;;17.00;99.90;;;;;;4996256;28;20470;-45
2022/10/25 13:02:25;;;;;;;5.60;2.20;;;17.00;99.90;;;;;;4981251;28;20471;-46
2022/10/25 13:05:23;;;;;;;2.93;1.87;;;16.90;99.90;;;;;;4996486;28;20483;-47
2022/10/25 13:07:54;;;;;;;2.50;1.80;;;16.80;99.90;;;;;;4980675;28;20996;-42
2022/10/25 13:10:23;;;;;;;2.53;2.30;;;16.80;99.90;;;;;;4995823;28;20432;-43